OYKKT MYX7-MYMM
Flight info
| Callsign | OYKKT |
|---|---|
| Flight time | 1h 16m |
| Altitude | 9000 |
| Route | GEROT DCT PAARR |
| Aircraft | DA42/L-SDFGRY/C |
Departure
| Time | 2026-04-28 16:29 |
|---|---|
| Airport | Rudder Cut Cay Airport (MYX7) |
Arrival
| Time | 2026-04-28 17:46 |
|---|---|
| Airport | Mayaguana Airport (MYMM) |
| Time | Latitude | Longitude | Altitude | Speed | Heading |
|---|---|---|---|---|---|
| 2026-04-28 16:11 | 23.88709 | -76.25074 | 18 ft | 0 kts | 272° |
| 2026-04-28 16:17 | 23.88709 | -76.25070 | 18 ft | 3 kts | 272° |
| 2026-04-28 16:17 | 23.88709 | -76.25052 | 19 ft | 0 kts | 272° |
| 2026-04-28 16:26 | 23.88705 | -76.25059 | 18 ft | 6 kts | 209° |
| 2026-04-28 16:27 | 23.88688 | -76.25060 | 18 ft | 0 kts | 176° |
| 2026-04-28 16:27 | 23.88664 | -76.25074 | 17 ft | 0 kts | 262° |
| 2026-04-28 16:28 | 23.88651 | -76.25272 | 12 ft | 56 kts | 266° |
| 2026-04-28 16:28 | 23.88620 | -76.25843 | 102 ft | 84 kts | 264° |
| 2026-04-28 16:28 | 23.88588 | -76.26483 | 357 ft | 86 kts | 266° |
| 2026-04-28 16:29 | 23.87868 | -76.26797 | 986 ft | 95 kts | 113° |
| 2026-04-28 16:29 | 23.88466 | -76.25481 | 1700 ft | 100 kts | 46° |
| 2026-04-28 16:30 | 23.88950 | -76.24754 | 1769 ft | 134 kts | 56° |
| 2026-04-28 16:30 | 23.89457 | -76.23923 | 2154 ft | 121 kts | 56° |
| 2026-04-28 16:30 | 23.89876 | -76.23232 | 2697 ft | 99 kts | 56° |
| 2026-04-28 16:30 | 23.90241 | -76.22600 | 3038 ft | 99 kts | 63° |
| 2026-04-28 16:31 | 23.90544 | -76.21919 | 3364 ft | 100 kts | 64° |
| 2026-04-28 16:31 | 23.90855 | -76.21239 | 3690 ft | 100 kts | 62° |
| 2026-04-28 16:31 | 23.91184 | -76.20565 | 4017 ft | 101 kts | 61° |
| 2026-04-28 16:31 | 23.91525 | -76.19893 | 4342 ft | 101 kts | 60° |
| 2026-04-28 16:32 | 23.91868 | -76.19230 | 4663 ft | 102 kts | 60° |
| 2026-04-28 16:32 | 23.92579 | -76.17871 | 5315 ft | 103 kts | 59° |
| 2026-04-28 16:32 | 23.92931 | -76.17202 | 5633 ft | 103 kts | 59° |
| 2026-04-28 16:33 | 23.93290 | -76.16520 | 5951 ft | 104 kts | 59° |
| 2026-04-28 16:33 | 23.93534 | -76.16057 | 6173 ft | 104 kts | 59° |
| 2026-04-28 16:33 | 23.94015 | -76.15145 | 6596 ft | 105 kts | 59° |
| 2026-04-28 16:33 | 23.94380 | -76.14453 | 6915 ft | 105 kts | 59° |
| 2026-04-28 16:34 | 23.94746 | -76.13758 | 7234 ft | 106 kts | 59° |
| 2026-04-28 16:34 | 23.95115 | -76.13059 | 7551 ft | 106 kts | 59° |
| 2026-04-28 16:34 | 23.95539 | -76.12397 | 7869 ft | 107 kts | 41° |
| 2026-04-28 16:34 | 23.96153 | -76.11943 | 8185 ft | 107 kts | 30° |
| 2026-04-28 16:35 | 23.96788 | -76.11510 | 8499 ft | 108 kts | 31° |
| 2026-04-28 16:35 | 23.97413 | -76.11051 | 8809 ft | 109 kts | 40° |
| 2026-04-28 16:35 | 23.97776 | -76.10316 | 9004 ft | 121 kts | 82° |
| 2026-04-28 16:35 | 23.97570 | -76.09361 | 9008 ft | 142 kts | 125° |
| 2026-04-28 16:36 | 23.96946 | -76.08477 | 8995 ft | 157 kts | 115° |
| 2026-04-28 16:36 | 23.96596 | -76.07310 | 9013 ft | 166 kts | 106° |
| 2026-04-28 16:36 | 23.96291 | -76.06077 | 9011 ft | 171 kts | 105° |
| 2026-04-28 16:36 | 23.95984 | -76.04810 | 9003 ft | 173 kts | 105° |
| 2026-04-28 16:37 | 23.95674 | -76.03530 | 9003 ft | 175 kts | 105° |
| 2026-04-28 16:37 | 23.95360 | -76.02236 | 9002 ft | 176 kts | 105° |
| 2026-04-28 16:37 | 23.95046 | -76.00939 | 9002 ft | 177 kts | 105° |
| 2026-04-28 16:38 | 23.94417 | -75.98338 | 9002 ft | 177 kts | 105° |
| 2026-04-28 16:38 | 23.94102 | -75.97036 | 9001 ft | 177 kts | 105° |
| 2026-04-28 16:38 | 23.93787 | -75.95733 | 9001 ft | 177 kts | 105° |
| 2026-04-28 16:38 | 23.93472 | -75.94428 | 9001 ft | 177 kts | 105° |
| 2026-04-28 16:39 | 23.93161 | -75.93142 | 9001 ft | 177 kts | 105° |
| 2026-04-28 16:39 | 23.92845 | -75.91835 | 9001 ft | 177 kts | 105° |
| 2026-04-28 16:39 | 23.92531 | -75.90532 | 9001 ft | 177 kts | 105° |
| 2026-04-28 16:39 | 23.92216 | -75.89227 | 9000 ft | 177 kts | 105° |
| 2026-04-28 16:40 | 23.91902 | -75.87924 | 9001 ft | 177 kts | 105° |
| 2026-04-28 16:40 | 23.91587 | -75.86620 | 9000 ft | 177 kts | 105° |
| 2026-04-28 16:40 | 23.91273 | -75.85316 | 9000 ft | 177 kts | 105° |
| 2026-04-28 16:40 | 23.90959 | -75.84014 | 9000 ft | 177 kts | 105° |
| 2026-04-28 16:41 | 23.90645 | -75.82711 | 9000 ft | 177 kts | 105° |
| 2026-04-28 16:41 | 23.90335 | -75.81424 | 8999 ft | 177 kts | 105° |
| 2026-04-28 16:41 | 23.90022 | -75.80122 | 8999 ft | 177 kts | 105° |
| 2026-04-28 16:41 | 23.89707 | -75.78815 | 8999 ft | 177 kts | 105° |
| 2026-04-28 16:42 | 23.89394 | -75.77512 | 8999 ft | 177 kts | 105° |
| 2026-04-28 16:42 | 23.89081 | -75.76208 | 8999 ft | 177 kts | 105° |
| 2026-04-28 16:42 | 23.88768 | -75.74906 | 8999 ft | 177 kts | 105° |
| 2026-04-28 16:42 | 23.88455 | -75.73604 | 8999 ft | 177 kts | 105° |
| 2026-04-28 16:43 | 23.88143 | -75.72301 | 8999 ft | 177 kts | 105° |
| 2026-04-28 16:43 | 23.87831 | -75.70999 | 8998 ft | 177 kts | 105° |
| 2026-04-28 16:43 | 23.87518 | -75.69695 | 8998 ft | 177 kts | 105° |
| 2026-04-28 16:43 | 23.87206 | -75.68392 | 8999 ft | 177 kts | 105° |
| 2026-04-28 16:44 | 23.86894 | -75.67089 | 8998 ft | 177 kts | 105° |
| 2026-04-28 16:44 | 23.86582 | -75.65788 | 8998 ft | 177 kts | 105° |
| 2026-04-28 16:44 | 23.86270 | -75.64485 | 8998 ft | 177 kts | 105° |
| 2026-04-28 16:44 | 23.85959 | -75.63182 | 8998 ft | 177 kts | 105° |
| 2026-04-28 16:45 | 23.85647 | -75.61879 | 8998 ft | 177 kts | 105° |
| 2026-04-28 16:45 | 23.85335 | -75.60573 | 8998 ft | 177 kts | 105° |
| 2026-04-28 16:45 | 23.85024 | -75.59270 | 8998 ft | 177 kts | 105° |
| 2026-04-28 16:45 | 23.84712 | -75.57966 | 8998 ft | 177 kts | 105° |
| 2026-04-28 16:46 | 23.84401 | -75.56662 | 8998 ft | 177 kts | 105° |
| 2026-04-28 16:46 | 23.84090 | -75.55359 | 8997 ft | 177 kts | 105° |
| 2026-04-28 16:46 | 23.83779 | -75.54055 | 8998 ft | 177 kts | 105° |
| 2026-04-28 16:46 | 23.83468 | -75.52751 | 8997 ft | 177 kts | 105° |
| 2026-04-28 16:47 | 23.83158 | -75.51449 | 8997 ft | 177 kts | 105° |
| 2026-04-28 16:47 | 23.82847 | -75.50145 | 8997 ft | 177 kts | 105° |
| 2026-04-28 16:47 | 23.82537 | -75.48840 | 8997 ft | 177 kts | 105° |
| 2026-04-28 16:47 | 23.82227 | -75.47539 | 8997 ft | 177 kts | 105° |
| 2026-04-28 16:48 | 23.81917 | -75.46234 | 8997 ft | 177 kts | 105° |
| 2026-04-28 16:48 | 23.81607 | -75.44931 | 8997 ft | 177 kts | 105° |
| 2026-04-28 16:48 | 23.81301 | -75.43644 | 8997 ft | 177 kts | 105° |
| 2026-04-28 16:48 | 23.80992 | -75.42341 | 8997 ft | 177 kts | 105° |
| 2026-04-28 16:49 | 23.80682 | -75.41036 | 8997 ft | 177 kts | 105° |
| 2026-04-28 16:49 | 23.80372 | -75.39732 | 8996 ft | 177 kts | 105° |
| 2026-04-28 16:49 | 23.80063 | -75.38429 | 8997 ft | 177 kts | 105° |
| 2026-04-28 16:49 | 23.79753 | -75.37123 | 8996 ft | 177 kts | 105° |
| 2026-04-28 16:50 | 23.79444 | -75.35817 | 8996 ft | 177 kts | 105° |
| 2026-04-28 16:50 | 23.79135 | -75.34513 | 8996 ft | 177 kts | 105° |
| 2026-04-28 16:50 | 23.78826 | -75.33208 | 8996 ft | 177 kts | 105° |
| 2026-04-28 16:50 | 23.78517 | -75.31904 | 8996 ft | 177 kts | 105° |
| 2026-04-28 16:51 | 23.78212 | -75.30614 | 8996 ft | 177 kts | 105° |
| 2026-04-28 16:51 | 23.77903 | -75.29310 | 8996 ft | 177 kts | 105° |
| 2026-04-28 16:51 | 23.77594 | -75.28002 | 8996 ft | 177 kts | 105° |
| 2026-04-28 16:51 | 23.77286 | -75.26699 | 8996 ft | 177 kts | 105° |
| 2026-04-28 16:52 | 23.76978 | -75.25393 | 8996 ft | 177 kts | 105° |
| 2026-04-28 16:52 | 23.76670 | -75.24088 | 8995 ft | 177 kts | 105° |
| 2026-04-28 16:52 | 23.76362 | -75.22784 | 8995 ft | 177 kts | 105° |
| 2026-04-28 16:52 | 23.76054 | -75.21480 | 8995 ft | 177 kts | 105° |
| 2026-04-28 16:53 | 23.75747 | -75.20176 | 8995 ft | 177 kts | 105° |
| 2026-04-28 16:53 | 23.75440 | -75.18872 | 8995 ft | 177 kts | 105° |
| 2026-04-28 16:53 | 23.75132 | -75.17568 | 8995 ft | 177 kts | 105° |
| 2026-04-28 16:53 | 23.74825 | -75.16263 | 8995 ft | 177 kts | 105° |
| 2026-04-28 16:54 | 23.74522 | -75.14977 | 8995 ft | 177 kts | 105° |
| 2026-04-28 16:54 | 23.74215 | -75.13669 | 8995 ft | 177 kts | 105° |
| 2026-04-28 16:54 | 23.73908 | -75.12365 | 8995 ft | 177 kts | 105° |
| 2026-04-28 16:54 | 23.73705 | -75.11502 | 8995 ft | 177 kts | 105° |
| 2026-04-28 16:55 | 23.73295 | -75.09758 | 8995 ft | 177 kts | 105° |
| 2026-04-28 16:55 | 23.72989 | -75.08453 | 8994 ft | 177 kts | 105° |
| 2026-04-28 16:55 | 23.72683 | -75.07150 | 8994 ft | 177 kts | 105° |
| 2026-04-28 16:55 | 23.72377 | -75.05846 | 8994 ft | 177 kts | 105° |
| 2026-04-28 16:56 | 23.72071 | -75.04541 | 8994 ft | 177 kts | 105° |
| 2026-04-28 16:56 | 23.71765 | -75.03236 | 8994 ft | 177 kts | 105° |
| 2026-04-28 16:56 | 23.71460 | -75.01931 | 8994 ft | 177 kts | 105° |
| 2026-04-28 16:56 | 23.71154 | -75.00627 | 8994 ft | 177 kts | 105° |
| 2026-04-28 16:57 | 23.70856 | -74.99351 | 8993 ft | 177 kts | 105° |
| 2026-04-28 16:57 | 23.70551 | -74.98049 | 8993 ft | 177 kts | 105° |
| 2026-04-28 16:57 | 23.70117 | -74.96798 | 8993 ft | 176 kts | 125° |
| 2026-04-28 16:57 | 23.69337 | -74.95775 | 9002 ft | 176 kts | 133° |
| 2026-04-28 16:58 | 23.68508 | -74.94794 | 9002 ft | 176 kts | 133° |
| 2026-04-28 16:58 | 23.67673 | -74.93818 | 9003 ft | 176 kts | 134° |
| 2026-04-28 16:58 | 23.66832 | -74.92838 | 8997 ft | 177 kts | 134° |
| 2026-04-28 16:58 | 23.65993 | -74.91859 | 8997 ft | 176 kts | 134° |
| 2026-04-28 16:59 | 23.65154 | -74.90882 | 9000 ft | 176 kts | 134° |
| 2026-04-28 16:59 | 23.64328 | -74.89919 | 9000 ft | 176 kts | 134° |
| 2026-04-28 16:59 | 23.63491 | -74.88942 | 9000 ft | 176 kts | 134° |
| 2026-04-28 16:59 | 23.62654 | -74.87966 | 9000 ft | 176 kts | 134° |
| 2026-04-28 17:00 | 23.61817 | -74.86990 | 9000 ft | 176 kts | 134° |
| 2026-04-28 17:00 | 23.60981 | -74.86016 | 9000 ft | 176 kts | 134° |
| 2026-04-28 17:00 | 23.60142 | -74.85039 | 9000 ft | 176 kts | 134° |
| 2026-04-28 17:00 | 23.59305 | -74.84064 | 8999 ft | 176 kts | 134° |
| 2026-04-28 17:01 | 23.58467 | -74.83089 | 8999 ft | 176 kts | 134° |
| 2026-04-28 17:01 | 23.57630 | -74.82114 | 8999 ft | 176 kts | 134° |
| 2026-04-28 17:01 | 23.56791 | -74.81138 | 8999 ft | 176 kts | 134° |
| 2026-04-28 17:01 | 23.55953 | -74.80163 | 8999 ft | 176 kts | 134° |
| 2026-04-28 17:02 | 23.55116 | -74.79188 | 8999 ft | 176 kts | 134° |
| 2026-04-28 17:02 | 23.54560 | -74.78541 | 8999 ft | 176 kts | 134° |
| 2026-04-28 17:02 | 23.53722 | -74.77566 | 8999 ft | 176 kts | 134° |
| 2026-04-28 17:02 | 23.52885 | -74.76591 | 8999 ft | 176 kts | 134° |
| 2026-04-28 17:03 | 23.51209 | -74.74641 | 8999 ft | 176 kts | 134° |
| 2026-04-28 17:03 | 23.50370 | -74.73664 | 8998 ft | 176 kts | 134° |
| 2026-04-28 17:03 | 23.49534 | -74.72690 | 8998 ft | 176 kts | 134° |
| 2026-04-28 17:04 | 23.47859 | -74.70741 | 8998 ft | 176 kts | 134° |
| 2026-04-28 17:04 | 23.47022 | -74.69767 | 8998 ft | 176 kts | 134° |
| 2026-04-28 17:05 | 23.45350 | -74.67819 | 8998 ft | 176 kts | 134° |
| 2026-04-28 17:05 | 23.44513 | -74.66844 | 8998 ft | 176 kts | 134° |
| 2026-04-28 17:05 | 23.43677 | -74.65871 | 8998 ft | 176 kts | 134° |
| 2026-04-28 17:06 | 23.42003 | -74.63922 | 8998 ft | 176 kts | 134° |
| 2026-04-28 17:06 | 23.41167 | -74.62948 | 8998 ft | 176 kts | 134° |
| 2026-04-28 17:06 | 23.39517 | -74.61024 | 8995 ft | 176 kts | 134° |
| 2026-04-28 17:07 | 23.38682 | -74.60051 | 8995 ft | 176 kts | 134° |
| 2026-04-28 17:07 | 23.37847 | -74.59077 | 9017 ft | 175 kts | 134° |
| 2026-04-28 17:07 | 23.37013 | -74.58105 | 8999 ft | 176 kts | 134° |
| 2026-04-28 17:07 | 23.36179 | -74.57132 | 8999 ft | 176 kts | 134° |
| 2026-04-28 17:08 | 23.35344 | -74.56158 | 8999 ft | 176 kts | 134° |
| 2026-04-28 17:08 | 23.34509 | -74.55184 | 8999 ft | 176 kts | 134° |
| 2026-04-28 17:08 | 23.33676 | -74.54207 | 8998 ft | 176 kts | 132° |
| 2026-04-28 17:08 | 23.33108 | -74.53029 | 8999 ft | 177 kts | 111° |
| 2026-04-28 17:09 | 23.32706 | -74.51761 | 9000 ft | 177 kts | 109° |
| 2026-04-28 17:09 | 23.32321 | -74.50487 | 9000 ft | 177 kts | 109° |
| 2026-04-28 17:09 | 23.31938 | -74.49213 | 8999 ft | 177 kts | 108° |
| 2026-04-28 17:09 | 23.31555 | -74.47938 | 8999 ft | 177 kts | 108° |
| 2026-04-28 17:10 | 23.31177 | -74.46679 | 8999 ft | 177 kts | 108° |
| 2026-04-28 17:10 | 23.30795 | -74.45406 | 8999 ft | 177 kts | 108° |
| 2026-04-28 17:10 | 23.30413 | -74.44132 | 8999 ft | 177 kts | 108° |
| 2026-04-28 17:10 | 23.30031 | -74.42859 | 8999 ft | 177 kts | 108° |
| 2026-04-28 17:11 | 23.29649 | -74.41584 | 8999 ft | 177 kts | 109° |
| 2026-04-28 17:11 | 23.29200 | -74.40338 | 8997 ft | 177 kts | 114° |
| 2026-04-28 17:11 | 23.28669 | -74.39130 | 8997 ft | 177 kts | 118° |
| 2026-04-28 17:11 | 23.28093 | -74.37950 | 8997 ft | 177 kts | 119° |
| 2026-04-28 17:12 | 23.27508 | -74.36774 | 8997 ft | 177 kts | 119° |
| 2026-04-28 17:12 | 23.26925 | -74.35597 | 8997 ft | 177 kts | 119° |
| 2026-04-28 17:12 | 23.26341 | -74.34420 | 8997 ft | 177 kts | 119° |
| 2026-04-28 17:12 | 23.25759 | -74.33242 | 8997 ft | 177 kts | 119° |
| 2026-04-28 17:13 | 23.25177 | -74.32066 | 8997 ft | 177 kts | 119° |
| 2026-04-28 17:13 | 23.24594 | -74.30888 | 8996 ft | 177 kts | 120° |
| 2026-04-28 17:13 | 23.23897 | -74.29791 | 8996 ft | 176 kts | 127° |
| 2026-04-28 17:13 | 23.23184 | -74.28726 | 8996 ft | 176 kts | 127° |
| 2026-04-28 17:14 | 23.22462 | -74.27649 | 8996 ft | 176 kts | 127° |
| 2026-04-28 17:14 | 23.21739 | -74.26570 | 8996 ft | 176 kts | 127° |
| 2026-04-28 17:14 | 23.21016 | -74.25491 | 8996 ft | 176 kts | 127° |
| 2026-04-28 17:14 | 23.20295 | -74.24414 | 8996 ft | 176 kts | 127° |
| 2026-04-28 17:15 | 23.19572 | -74.23334 | 8996 ft | 176 kts | 127° |
| 2026-04-28 17:15 | 23.18849 | -74.22256 | 8996 ft | 176 kts | 127° |
| 2026-04-28 17:15 | 23.18128 | -74.21179 | 8996 ft | 176 kts | 127° |
| 2026-04-28 17:15 | 23.17405 | -74.20101 | 8996 ft | 176 kts | 127° |
| 2026-04-28 17:16 | 23.16683 | -74.19024 | 8996 ft | 176 kts | 127° |
| 2026-04-28 17:16 | 23.15959 | -74.17946 | 8996 ft | 176 kts | 127° |
| 2026-04-28 17:16 | 23.15237 | -74.16868 | 8997 ft | 176 kts | 127° |
| 2026-04-28 17:16 | 23.14514 | -74.15792 | 8996 ft | 176 kts | 127° |
| 2026-04-28 17:17 | 23.13791 | -74.14714 | 8996 ft | 176 kts | 127° |
| 2026-04-28 17:17 | 23.13068 | -74.13637 | 8996 ft | 176 kts | 127° |
| 2026-04-28 17:17 | 23.12345 | -74.12559 | 8997 ft | 176 kts | 127° |
| 2026-04-28 17:17 | 23.11621 | -74.11482 | 8997 ft | 176 kts | 127° |
| 2026-04-28 17:18 | 23.10898 | -74.10405 | 8996 ft | 176 kts | 127° |
| 2026-04-28 17:18 | 23.10175 | -74.09330 | 8996 ft | 176 kts | 127° |
| 2026-04-28 17:18 | 23.09462 | -74.08267 | 8997 ft | 176 kts | 127° |
| 2026-04-28 17:18 | 23.08737 | -74.07190 | 8997 ft | 176 kts | 127° |
| 2026-04-28 17:19 | 23.08015 | -74.06114 | 8997 ft | 176 kts | 127° |
| 2026-04-28 17:19 | 23.07292 | -74.05039 | 8997 ft | 176 kts | 127° |
| 2026-04-28 17:19 | 23.06568 | -74.03962 | 8997 ft | 176 kts | 127° |
| 2026-04-28 17:19 | 23.05845 | -74.02887 | 8997 ft | 176 kts | 127° |
| 2026-04-28 17:20 | 23.05120 | -74.01811 | 8997 ft | 176 kts | 127° |
| 2026-04-28 17:20 | 23.04641 | -74.01098 | 8997 ft | 176 kts | 127° |
| 2026-04-28 17:20 | 23.03672 | -73.99658 | 8997 ft | 176 kts | 127° |
| 2026-04-28 17:20 | 23.02947 | -73.98582 | 8997 ft | 176 kts | 127° |
| 2026-04-28 17:21 | 23.02222 | -73.97505 | 8997 ft | 176 kts | 127° |
| 2026-04-28 17:21 | 23.01498 | -73.96430 | 8997 ft | 176 kts | 127° |
| 2026-04-28 17:21 | 23.00774 | -73.95355 | 8997 ft | 176 kts | 127° |
| 2026-04-28 17:22 | 22.99326 | -73.93206 | 8997 ft | 176 kts | 127° |
| 2026-04-28 17:22 | 22.98601 | -73.92130 | 8997 ft | 176 kts | 127° |
| 2026-04-28 17:22 | 22.97877 | -73.91057 | 8997 ft | 176 kts | 127° |
| 2026-04-28 17:23 | 22.96428 | -73.88908 | 8997 ft | 176 kts | 127° |
| 2026-04-28 17:23 | 22.95704 | -73.87834 | 8997 ft | 176 kts | 127° |
| 2026-04-28 17:23 | 22.94980 | -73.86761 | 8997 ft | 176 kts | 127° |
| 2026-04-28 17:23 | 22.94254 | -73.85686 | 8997 ft | 176 kts | 127° |
| 2026-04-28 17:24 | 22.93530 | -73.84613 | 8997 ft | 176 kts | 127° |
| 2026-04-28 17:24 | 22.92804 | -73.83538 | 8997 ft | 176 kts | 127° |
| 2026-04-28 17:24 | 22.92089 | -73.82479 | 8997 ft | 176 kts | 127° |
| 2026-04-28 17:24 | 22.91363 | -73.81403 | 8997 ft | 176 kts | 127° |
| 2026-04-28 17:25 | 22.90638 | -73.80330 | 8997 ft | 176 kts | 127° |
| 2026-04-28 17:25 | 22.89187 | -73.78183 | 8997 ft | 176 kts | 127° |
| 2026-04-28 17:25 | 22.88462 | -73.77111 | 8997 ft | 176 kts | 127° |
| 2026-04-28 17:26 | 22.87735 | -73.76036 | 8997 ft | 176 kts | 127° |
| 2026-04-28 17:26 | 22.87010 | -73.74964 | 8997 ft | 176 kts | 127° |
| 2026-04-28 17:26 | 22.86285 | -73.73892 | 8997 ft | 176 kts | 127° |
| 2026-04-28 17:26 | 22.85560 | -73.72819 | 8997 ft | 176 kts | 127° |
| 2026-04-28 17:27 | 22.84834 | -73.71747 | 8997 ft | 176 kts | 127° |
| 2026-04-28 17:27 | 22.84109 | -73.70676 | 8997 ft | 176 kts | 127° |
| 2026-04-28 17:27 | 22.83383 | -73.69603 | 8997 ft | 176 kts | 127° |
| 2026-04-28 17:27 | 22.82658 | -73.68532 | 8997 ft | 176 kts | 127° |
| 2026-04-28 17:28 | 22.81932 | -73.67460 | 8997 ft | 176 kts | 127° |
| 2026-04-28 17:28 | 22.80204 | -73.65599 | 8995 ft | 176 kts | 134° |
| 2026-04-28 17:28 | 22.79423 | -73.64577 | 8995 ft | 176 kts | 128° |
| 2026-04-28 17:29 | 22.78705 | -73.63499 | 8995 ft | 176 kts | 126° |
| 2026-04-28 17:29 | 22.78001 | -73.62431 | 8995 ft | 176 kts | 127° |
| 2026-04-28 17:29 | 22.77284 | -73.61353 | 8995 ft | 176 kts | 127° |
| 2026-04-28 17:30 | 22.75843 | -73.59201 | 8995 ft | 176 kts | 127° |
| 2026-04-28 17:30 | 22.74401 | -73.57049 | 8995 ft | 176 kts | 127° |
| 2026-04-28 17:30 | 22.73680 | -73.55974 | 8995 ft | 176 kts | 127° |
| 2026-04-28 17:31 | 22.72960 | -73.54899 | 8995 ft | 176 kts | 127° |
| 2026-04-28 17:31 | 22.71516 | -73.52745 | 8995 ft | 176 kts | 127° |
| 2026-04-28 17:32 | 22.70057 | -73.50570 | 8925 ft | 178 kts | 127° |
| 2026-04-28 17:32 | 22.69330 | -73.49486 | 8925 ft | 177 kts | 127° |
| 2026-04-28 17:32 | 22.68605 | -73.48406 | 8925 ft | 177 kts | 127° |
| 2026-04-28 17:32 | 22.67882 | -73.47330 | 8925 ft | 177 kts | 127° |
| 2026-04-28 17:33 | 22.67158 | -73.46259 | 8924 ft | 176 kts | 129° |
| 2026-04-28 17:33 | 22.66303 | -73.45313 | 8926 ft | 176 kts | 138° |
| 2026-04-28 17:33 | 22.65405 | -73.44411 | 8926 ft | 176 kts | 137° |
| 2026-04-28 17:33 | 22.64820 | -73.43805 | 8926 ft | 176 kts | 137° |
| 2026-04-28 17:34 | 22.63654 | -73.42562 | 8926 ft | 176 kts | 136° |
| 2026-04-28 17:34 | 22.62786 | -73.41631 | 8926 ft | 176 kts | 136° |
| 2026-04-28 17:34 | 22.61917 | -73.40700 | 8926 ft | 176 kts | 136° |
| 2026-04-28 17:34 | 22.61059 | -73.39782 | 8925 ft | 176 kts | 136° |
| 2026-04-28 17:35 | 22.60187 | -73.38851 | 8752 ft | 177 kts | 136° |
| 2026-04-28 17:35 | 22.59307 | -73.37913 | 8514 ft | 178 kts | 136° |
| 2026-04-28 17:35 | 22.58429 | -73.36972 | 8276 ft | 178 kts | 136° |
| 2026-04-28 17:35 | 22.57549 | -73.36030 | 8038 ft | 178 kts | 136° |
| 2026-04-28 17:36 | 22.56669 | -73.35089 | 7802 ft | 178 kts | 136° |
| 2026-04-28 17:36 | 22.55792 | -73.34151 | 7567 ft | 177 kts | 136° |
| 2026-04-28 17:36 | 22.54916 | -73.33214 | 7333 ft | 177 kts | 136° |
| 2026-04-28 17:36 | 22.54043 | -73.32282 | 7099 ft | 176 kts | 136° |
| 2026-04-28 17:37 | 22.53172 | -73.31352 | 6866 ft | 176 kts | 136° |
| 2026-04-28 17:37 | 22.52304 | -73.30425 | 6633 ft | 175 kts | 136° |
| 2026-04-28 17:37 | 22.51437 | -73.29499 | 6402 ft | 175 kts | 136° |
| 2026-04-28 17:37 | 22.50574 | -73.28577 | 6171 ft | 174 kts | 136° |
| 2026-04-28 17:38 | 22.49712 | -73.27657 | 5936 ft | 174 kts | 136° |
| 2026-04-28 17:38 | 22.48852 | -73.26740 | 5708 ft | 173 kts | 136° |
| 2026-04-28 17:38 | 22.47999 | -73.25830 | 5484 ft | 171 kts | 136° |
| 2026-04-28 17:38 | 22.47158 | -73.24932 | 5260 ft | 169 kts | 136° |
| 2026-04-28 17:39 | 22.46322 | -73.24040 | 5034 ft | 168 kts | 136° |
| 2026-04-28 17:39 | 22.45492 | -73.23155 | 4823 ft | 167 kts | 136° |
| 2026-04-28 17:39 | 22.43851 | -73.21405 | 4373 ft | 166 kts | 136° |
| 2026-04-28 17:40 | 22.43030 | -73.20530 | 4157 ft | 166 kts | 136° |
| 2026-04-28 17:40 | 22.42210 | -73.19656 | 3938 ft | 165 kts | 136° |
| 2026-04-28 17:40 | 22.41393 | -73.18785 | 3723 ft | 165 kts | 136° |
| 2026-04-28 17:40 | 22.40580 | -73.17920 | 3503 ft | 163 kts | 136° |
| 2026-04-28 17:41 | 22.39775 | -73.17062 | 3303 ft | 163 kts | 136° |
| 2026-04-28 17:41 | 22.38948 | -73.16183 | 3049 ft | 169 kts | 136° |
| 2026-04-28 17:41 | 22.38109 | -73.15291 | 2817 ft | 168 kts | 136° |
| 2026-04-28 17:41 | 22.37274 | -73.14400 | 2589 ft | 172 kts | 136° |
| 2026-04-28 17:42 | 22.36437 | -73.13507 | 2379 ft | 165 kts | 136° |
| 2026-04-28 17:42 | 22.35895 | -73.12926 | 2241 ft | 169 kts | 136° |
| 2026-04-28 17:42 | 22.34762 | -73.11724 | 1926 ft | 166 kts | 136° |
| 2026-04-28 17:42 | 22.33990 | -73.10856 | 1728 ft | 155 kts | 128° |
| 2026-04-28 17:43 | 22.33552 | -73.09827 | 1530 ft | 149 kts | 103° |
| 2026-04-28 17:43 | 22.33556 | -73.08726 | 1335 ft | 146 kts | 78° |
| 2026-04-28 17:43 | 22.33967 | -73.07738 | 1143 ft | 144 kts | 57° |
| 2026-04-28 17:43 | 22.34517 | -73.06846 | 950 ft | 142 kts | 56° |
| 2026-04-28 17:44 | 22.35029 | -73.06025 | 842 ft | 122 kts | 56° |
| 2026-04-28 17:44 | 22.35471 | -73.05319 | 711 ft | 107 kts | 56° |
| 2026-04-28 17:44 | 22.35857 | -73.04699 | 594 ft | 94 kts | 56° |
| 2026-04-28 17:44 | 22.36213 | -73.04132 | 468 ft | 88 kts | 56° |
| 2026-04-28 17:45 | 22.36552 | -73.03590 | 347 ft | 87 kts | 56° |
| 2026-04-28 17:45 | 22.36887 | -73.03047 | 228 ft | 87 kts | 57° |
| 2026-04-28 17:45 | 22.37217 | -73.02511 | 100 ft | 84 kts | 54° |
| 2026-04-28 17:45 | 22.37526 | -73.02011 | 17 ft | 70 kts | 57° |
| 2026-04-28 17:46 | 22.37737 | -73.01671 | 19 ft | 41 kts | 56° |
| 2026-04-28 17:46 | 22.37817 | -73.01541 | 20 ft | 16 kts | 57° |
| 2026-04-28 17:46 | 22.37891 | -73.01515 | 19 ft | 11 kts | 327° |
| 2026-04-28 17:46 | 22.37911 | -73.01530 | 19 ft | 3 kts | 325° |
| 2026-04-28 17:47 | 22.37972 | -73.01575 | 18 ft | 15 kts | 327° |
| 2026-04-28 17:47 | 22.38057 | -73.01637 | 18 ft | 14 kts | 324° |
| 2026-04-28 17:47 | 22.38111 | -73.01699 | 18 ft | 11 kts | 246° |
| 2026-04-28 17:47 | 22.38101 | -73.01718 | 18 ft | 7 kts | 231° |
| 2026-04-28 17:48 | 22.38097 | -73.01723 | 18 ft | 0 kts | 229° |
| 2026-04-28 17:48 | 22.38094 | -73.01731 | 18 ft | 5 kts | 256° |
| 2026-04-28 17:48 | 22.38088 | -73.01744 | 18 ft | 0 kts | 223° |